sensor_id;sensor_type;location;lat;lon;timestamp;temperature;humidity
44695;DHT22;32845;59.422;17.930;2023-08-08T00:02:07;17.40;99.90
44695;DHT22;32845;59.422;17.930;2023-08-08T00:06:38;17.40;99.90
44695;DHT22;32845;59.422;17.930;2023-08-08T00:11:09;17.40;99.90
44695;DHT22;32845;59.422;17.930;2023-08-08T00:15:39;17.40;99.90
44695;DHT22;32845;59.422;17.930;2023-08-08T00:20:10;17.30;99.90
44695;DHT22;32845;59.422;17.930;2023-08-08T00:24:41;17.30;99.90
44695;DHT22;32845;59.422;17.930;2023-08-08T00:29:12;17.40;99.90
44695;DHT22;32845;59.422;17.930;2023-08-08T00:33:43;17.30;99.90
44695;DHT22;32845;59.422;17.930;2023-08-08T00:38:13;17.30;99.90
44695;DHT22;32845;59.422;17.930;2023-08-08T00:42:44;17.30;99.90
44695;DHT22;32845;59.422;17.930;2023-08-08T00:47:14;17.30;99.90
44695;DHT22;32845;59.422;17.930;2023-08-08T00:51:46;17.30;99.90
44695;DHT22;32845;59.422;17.930;2023-08-08T00:56:17;17.30;99.90
44695;DHT22;32845;59.422;17.930;2023-08-08T01:00:48;17.30;99.90
44695;DHT22;32845;59.422;17.930;2023-08-08T01:05:18;17.30;99.90
44695;DHT22;32845;59.422;17.930;2023-08-08T01:10:01;17.30;99.90
44695;DHT22;32845;59.422;17.930;2023-08-08T01:14:38;17.30;99.90
44695;DHT22;32845;59.422;17.930;2023-08-08T01:19:17;17.30;99.90
44695;DHT22;32845;59.422;17.930;2023-08-08T01:28:52;17.20;99.90
44695;DHT22;32845;59.422;17.930;2023-08-08T01:33:23;17.20;99.90
44695;DHT22;32845;59.422;17.930;2023-08-08T01:38:01;17.20;99.90
44695;DHT22;32845;59.422;17.930;2023-08-08T01:42:34;17.20;99.90
44695;DHT22;32845;59.422;17.930;2023-08-08T01:47:06;17.20;99.90
44695;DHT22;32845;59.422;17.930;2023-08-08T01:51:37;17.20;99.90
44695;DHT22;32845;59.422;17.930;2023-08-08T01:56:07;17.20;99.90
44695;DHT22;32845;59.422;17.930;2023-08-08T02:00:38;17.20;99.90
44695;DHT22;32845;59.422;17.930;2023-08-08T02:05:11;17.10;99.90
44695;DHT22;32845;59.422;17.930;2023-08-08T02:09:41;17.10;99.90
44695;DHT22;32845;59.422;17.930;2023-08-08T02:14:12;17.10;99.90
44695;DHT22;32845;59.422;17.930;2023-08-08T02:18:43;17.10;99.90
44695;DHT22;32845;59.422;17.930;2023-08-08T02:23:13;17.10;99.90
44695;DHT22;32845;59.422;17.930;2023-08-08T02:27:44;17.10;99.90
44695;DHT22;32845;59.422;17.930;2023-08-08T02:32:15;17.10;99.90
44695;DHT22;32845;59.422;17.930;2023-08-08T02:36:45;17.10;99.90
44695;DHT22;32845;59.422;17.930;2023-08-08T02:41:16;17.10;99.90
44695;DHT22;32845;59.422;17.930;2023-08-08T02:45:46;17.00;99.90
44695;DHT22;32845;59.422;17.930;2023-08-08T02:50:17;17.00;99.90
44695;DHT22;32845;59.422;17.930;2023-08-08T02:54:48;17.00;99.90
44695;DHT22;32845;59.422;17.930;2023-08-08T02:59:18;17.00;99.90
44695;DHT22;32845;59.422;17.930;2023-08-08T03:03:49;17.00;99.90
44695;DHT22;32845;59.422;17.930;2023-08-08T03:08:20;17.00;99.90
44695;DHT22;32845;59.422;17.930;2023-08-08T03:12:50;17.00;99.90
44695;DHT22;32845;59.422;17.930;2023-08-08T03:17:21;16.90;99.90
44695;DHT22;32845;59.422;17.930;2023-08-08T03:21:52;16.90;99.90
44695;DHT22;32845;59.422;17.930;2023-08-08T03:26:22;16.90;99.90
44695;DHT22;32845;59.422;17.930;2023-08-08T03:30:53;16.90;99.90
44695;DHT22;32845;59.422;17.930;2023-08-08T03:35:23;16.90;99.90
44695;DHT22;32845;59.422;17.930;2023-08-08T03:39:55;16.90;99.90
44695;DHT22;32845;59.422;17.930;2023-08-08T03:44:25;16.80;99.90
44695;DHT22;32845;59.422;17.930;2023-08-08T03:48:56;16.80;99.90
44695;DHT22;32845;59.422;17.930;2023-08-08T03:53:26;16.70;99.90
44695;DHT22;32845;59.422;17.930;2023-08-08T03:57:57;16.70;99.90
44695;DHT22;32845;59.422;17.930;2023-08-08T04:02:28;16.70;99.90
44695;DHT22;32845;59.422;17.930;2023-08-08T04:06:59;16.70;99.90
44695;DHT22;32845;59.422;17.930;2023-08-08T04:11:29;16.60;99.90
44695;DHT22;32845;59.422;17.930;2023-08-08T04:16:01;16.60;99.90
44695;DHT22;32845;59.422;17.930;2023-08-08T04:20:32;16.50;99.90
44695;DHT22;32845;59.422;17.930;2023-08-08T04:25:04;16.50;99.90
44695;DHT22;32845;59.422;17.930;2023-08-08T04:29:35;16.50;99.90
44695;DHT22;32845;59.422;17.930;2023-08-08T04:34:05;16.40;99.90
44695;DHT22;32845;59.422;17.930;2023-08-08T04:38:36;16.40;99.90
44695;DHT22;32845;59.422;17.930;2023-08-08T04:43:11;16.30;99.90
44695;DHT22;32845;59.422;17.930;2023-08-08T04:47:42;16.30;99.90
44695;DHT22;32845;59.422;17.930;2023-08-08T04:52:12;16.20;99.90
44695;DHT22;32845;59.422;17.930;2023-08-08T04:56:43;16.20;99.90
44695;DHT22;32845;59.422;17.930;2023-08-08T05:01:13;16.20;99.90
44695;DHT22;32845;59.422;17.930;2023-08-08T05:05:46;16.10;99.90
44695;DHT22;32845;59.422;17.930;2023-08-08T05:10:16;16.10;99.90
44695;DHT22;32845;59.422;17.930;2023-08-08T05:14:47;16.20;99.90
44695;DHT22;32845;59.422;17.930;2023-08-08T05:19:17;16.10;99.90
44695;DHT22;32845;59.422;17.930;2023-08-08T05:23:48;16.10;99.90
44695;DHT22;32845;59.422;17.930;2023-08-08T05:28:19;16.10;99.90
44695;DHT22;32845;59.422;17.930;2023-08-08T05:32:49;16.10;99.90
44695;DHT22;32845;59.422;17.930;2023-08-08T05:37:20;16.10;99.90
44695;DHT22;32845;59.422;17.930;2023-08-08T05:41:50;16.10;99.90
44695;DHT22;32845;59.422;17.930;2023-08-08T05:46:21;16.20;99.90
44695;DHT22;32845;59.422;17.930;2023-08-08T05:50:52;16.20;99.90
44695;DHT22;32845;59.422;17.930;2023-08-08T05:55:22;16.20;99.90
44695;DHT22;32845;59.422;17.930;2023-08-08T05:59:53;16.20;99.90
44695;DHT22;32845;59.422;17.930;2023-08-08T06:04:23;16.20;99.90
44695;DHT22;32845;59.422;17.930;2023-08-08T06:08:54;16.30;99.90
44695;DHT22;32845;59.422;17.930;2023-08-08T06:13:25;16.30;99.90
44695;DHT22;32845;59.422;17.930;2023-08-08T06:17:57;16.40;99.90
44695;DHT22;32845;59.422;17.930;2023-08-08T06:22:27;16.50;99.90
44695;DHT22;32845;59.422;17.930;2023-08-08T06:26:58;16.60;99.90
44695;DHT22;32845;59.422;17.930;2023-08-08T06:31:30;16.60;99.90
44695;DHT22;32845;59.422;17.930;2023-08-08T06:36:01;16.60;99.90
44695;DHT22;32845;59.422;17.930;2023-08-08T06:40:33;16.70;99.90
44695;DHT22;32845;59.422;17.930;2023-08-08T06:45:04;16.60;99.90
44695;DHT22;32845;59.422;17.930;2023-08-08T06:49:35;16.70;99.90
44695;DHT22;32845;59.422;17.930;2023-08-08T06:54:10;16.70;99.90
44695;DHT22;32845;59.422;17.930;2023-08-08T06:58:41;16.70;99.90
44695;DHT22;32845;59.422;17.930;2023-08-08T07:03:12;16.70;99.90
44695;DHT22;32845;59.422;17.930;2023-08-08T07:07:42;16.70;99.90
44695;DHT22;32845;59.422;17.930;2023-08-08T07:12:13;16.80;99.90
44695;DHT22;32845;59.422;17.930;2023-08-08T07:16:43;16.80;99.90
44695;DHT22;32845;59.422;17.930;2023-08-08T07:21:19;16.70;99.90
44695;DHT22;32845;59.422;17.930;2023-08-08T07:25:50;16.70;99.90
44695;DHT22;32845;59.422;17.930;2023-08-08T07:30:21;16.70;99.90
44695;DHT22;32845;59.422;17.930;2023-08-08T07:34:52;16.80;99.90
44695;DHT22;32845;59.422;17.930;2023-08-08T07:39:22;16.80;99.90
44695;DHT22;32845;59.422;17.930;2023-08-08T07:43:58;16.80;99.90
44695;DHT22;32845;59.422;17.930;2023-08-08T07:48:28;16.80;99.90
44695;DHT22;32845;59.422;17.930;2023-08-08T07:52:59;16.90;99.90
44695;DHT22;32845;59.422;17.930;2023-08-08T07:57:30;16.90;99.90
44695;DHT22;32845;59.422;17.930;2023-08-08T08:02:02;16.90;99.90
44695;DHT22;32845;59.422;17.930;2023-08-08T08:06:32;16.90;99.90
44695;DHT22;32845;59.422;17.930;2023-08-08T08:11:08;17.00;99.90
44695;DHT22;32845;59.422;17.930;2023-08-08T08:15:38;17.00;99.90
44695;DHT22;32845;59.422;17.930;2023-08-08T08:20:09;17.10;99.90
44695;DHT22;32845;59.422;17.930;2023-08-08T08:24:47;17.10;99.90
44695;DHT22;32845;59.422;17.930;2023-08-08T08:29:17;17.30;99.90
44695;DHT22;32845;59.422;17.930;2023-08-08T08:33:54;17.60;99.90
44695;DHT22;32845;59.422;17.930;2023-08-08T08:38:25;17.80;99.90
44695;DHT22;32845;59.422;17.930;2023-08-08T08:42:56;17.80;99.90
44695;DHT22;32845;59.422;17.930;2023-08-08T08:47:30;17.80;99.90
44695;DHT22;32845;59.422;17.930;2023-08-08T08:52:01;17.80;99.90
44695;DHT22;32845;59.422;17.930;2023-08-08T08:56:32;17.80;99.90
44695;DHT22;32845;59.422;17.930;2023-08-08T09:01:03;17.70;99.90
44695;DHT22;32845;59.422;17.930;2023-08-08T09:05:34;17.60;99.90
44695;DHT22;32845;59.422;17.930;2023-08-08T09:10:06;17.60;99.90
44695;DHT22;32845;59.422;17.930;2023-08-08T09:14:40;17.50;99.90
44695;DHT22;32845;59.422;17.930;2023-08-08T09:19:12;17.50;99.90
44695;DHT22;32845;59.422;17.930;2023-08-08T09:23:43;17.50;99.90
44695;DHT22;32845;59.422;17.930;2023-08-08T09:28:14;17.50;99.90
44695;DHT22;32845;59.422;17.930;2023-08-08T09:32:45;17.50;99.90
44695;DHT22;32845;59.422;17.930;2023-08-08T09:37:15;17.50;99.90
44695;DHT22;32845;59.422;17.930;2023-08-08T09:41:47;17.50;99.90
44695;DHT22;32845;59.422;17.930;2023-08-08T09:46:21;17.50;99.90
44695;DHT22;32845;59.422;17.930;2023-08-08T09:50:53;17.40;99.90
44695;DHT22;32845;59.422;17.930;2023-08-08T09:55:23;17.40;99.90
44695;DHT22;32845;59.422;17.930;2023-08-08T09:59:55;17.40;99.90
44695;DHT22;32845;59.422;17.930;2023-08-08T10:04:26;17.50;99.90
44695;DHT22;32845;59.422;17.930;2023-08-08T10:08:57;17.50;99.90
44695;DHT22;32845;59.422;17.930;2023-08-08T10:13:35;17.50;99.90
44695;DHT22;32845;59.422;17.930;2023-08-08T10:18:06;17.50;99.90
44695;DHT22;32845;59.422;17.930;2023-08-08T10:22:43;17.50;99.90
44695;DHT22;32845;59.422;17.930;2023-08-08T10:27:15;17.50;99.90
44695;DHT22;32845;59.422;17.930;2023-08-08T10:32:01;17.50;99.90
44695;DHT22;32845;59.422;17.930;2023-08-08T10:36:52;17.50;99.90
44695;DHT22;32845;59.422;17.930;2023-08-08T10:41:26;17.40;99.90
44695;DHT22;32845;59.422;17.930;2023-08-08T10:46:01;17.40;99.90
44695;DHT22;32845;59.422;17.930;2023-08-08T10:50:32;17.20;99.90
44695;DHT22;32845;59.422;17.930;2023-08-08T10:55:18;17.20;99.90
44695;DHT22;32845;59.422;17.930;2023-08-08T10:59:49;17.10;99.90
44695;DHT22;32845;59.422;17.930;2023-08-08T11:04:22;17.00;99.90
44695;DHT22;32845;59.422;17.930;2023-08-08T11:08:53;16.90;99.90
44695;DHT22;32845;59.422;17.930;2023-08-08T11:13:25;16.90;99.90
44695;DHT22;32845;59.422;17.930;2023-08-08T11:17:56;16.80;99.90
44695;DHT22;32845;59.422;17.930;2023-08-08T11:22:27;16.90;99.90
44695;DHT22;32845;59.422;17.930;2023-08-08T11:26:59;16.90;99.90
44695;DHT22;32845;59.422;17.930;2023-08-08T11:31:29;16.80;99.90
44695;DHT22;32845;59.422;17.930;2023-08-08T11:36:00;16.70;99.90
44695;DHT22;32845;59.422;17.930;2023-08-08T11:40:32;16.60;99.90
44695;DHT22;32845;59.422;17.930;2023-08-08T11:45:03;16.50;99.90
44695;DHT22;32845;59.422;17.930;2023-08-08T11:49:41;16.50;99.90
44695;DHT22;32845;59.422;17.930;2023-08-08T11:54:15;16.50;99.90
44695;DHT22;32845;59.422;17.930;2023-08-08T11:58:50;16.60;99.90
44695;DHT22;32845;59.422;17.930;2023-08-08T12:03:22;16.60;99.90
44695;DHT22;32845;59.422;17.930;2023-08-08T12:07:52;16.70;99.90
44695;DHT22;32845;59.422;17.930;2023-08-08T12:12:26;16.60;99.90
44695;DHT22;32845;59.422;17.930;2023-08-08T12:16:57;16.50;99.90
44695;DHT22;32845;59.422;17.930;2023-08-08T12:21:28;16.50;99.90
44695;DHT22;32845;59.422;17.930;2023-08-08T12:25:59;16.50;99.90
44695;DHT22;32845;59.422;17.930;2023-08-08T12:30:30;16.40;99.90
44695;DHT22;32845;59.422;17.930;2023-08-08T12:35:01;16.40;99.90
44695;DHT22;32845;59.422;17.930;2023-08-08T12:39:31;16.40;99.90
44695;DHT22;32845;59.422;17.930;2023-08-08T12:44:02;16.40;99.90
44695;DHT22;32845;59.422;17.930;2023-08-08T12:48:33;16.30;99.90
44695;DHT22;32845;59.422;17.930;2023-08-08T12:53:04;16.30;99.90
44695;DHT22;32845;59.422;17.930;2023-08-08T12:57:35;16.30;99.90
44695;DHT22;32845;59.422;17.930;2023-08-08T13:02:06;16.20;99.90
44695;DHT22;32845;59.422;17.930;2023-08-08T13:06:37;16.20;99.90
44695;DHT22;32845;59.422;17.930;2023-08-08T13:11:12;16.30;99.90
44695;DHT22;32845;59.422;17.930;2023-08-08T13:15:43;16.30;99.90
44695;DHT22;32845;59.422;17.930;2023-08-08T13:20:15;16.40;99.90
44695;DHT22;32845;59.422;17.930;2023-08-08T13:24:47;16.40;99.90
44695;DHT22;32845;59.422;17.930;2023-08-08T13:29:17;16.40;99.90
44695;DHT22;32845;59.422;17.930;2023-08-08T13:33:48;16.40;99.90
44695;DHT22;32845;59.422;17.930;2023-08-08T13:38:19;16.30;99.90
44695;DHT22;32845;59.422;17.930;2023-08-08T13:42:50;16.30;99.90
44695;DHT22;32845;59.422;17.930;2023-08-08T13:47:20;16.20;99.90
44695;DHT22;32845;59.422;17.930;2023-08-08T13:51:52;16.10;99.90
44695;DHT22;32845;59.422;17.930;2023-08-08T13:56:23;16.20;99.90
44695;DHT22;32845;59.422;17.930;2023-08-08T14:00:55;16.10;99.90
44695;DHT22;32845;59.422;17.930;2023-08-08T14:05:27;16.10;99.90
44695;DHT22;32845;59.422;17.930;2023-08-08T14:09:58;16.10;99.90
44695;DHT22;32845;59.422;17.930;2023-08-08T14:14:29;16.10;99.90
44695;DHT22;32845;59.422;17.930;2023-08-08T14:19:00;16.10;99.90
44695;DHT22;32845;59.422;17.930;2023-08-08T14:23:31;16.20;99.90
44695;DHT22;32845;59.422;17.930;2023-08-08T14:28:02;16.20;99.90
44695;DHT22;32845;59.422;17.930;2023-08-08T14:32:34;16.20;99.90
44695;DHT22;32845;59.422;17.930;2023-08-08T14:37:05;16.20;99.90
44695;DHT22;32845;59.422;17.930;2023-08-08T14:41:41;16.10;99.90
44695;DHT22;32845;59.422;17.930;2023-08-08T14:46:12;16.10;99.90
44695;DHT22;32845;59.422;17.930;2023-08-08T14:50:42;15.90;99.90
44695;DHT22;32845;59.422;17.930;2023-08-08T14:55:13;15.80;99.90
44695;DHT22;32845;59.422;17.930;2023-08-08T14:59:43;15.70;99.90
44695;DHT22;32845;59.422;17.930;2023-08-08T15:04:14;15.60;99.90
44695;DHT22;32845;59.422;17.930;2023-08-08T15:08:45;15.50;99.90
44695;DHT22;32845;59.422;17.930;2023-08-08T15:13:15;15.40;99.90
44695;DHT22;32845;59.422;17.930;2023-08-08T15:17:46;15.40;99.90
44695;DHT22;32845;59.422;17.930;2023-08-08T15:22:17;15.40;99.90
44695;DHT22;32845;59.422;17.930;2023-08-08T15:26:47;15.40;99.90
44695;DHT22;32845;59.422;17.930;2023-08-08T15:31:23;15.40;99.90
44695;DHT22;32845;59.422;17.930;2023-08-08T15:35:53;15.40;99.90
44695;DHT22;32845;59.422;17.930;2023-08-08T15:40:25;15.40;99.90
44695;DHT22;32845;59.422;17.930;2023-08-08T15:44:55;15.50;99.90
44695;DHT22;32845;59.422;17.930;2023-08-08T15:49:26;15.40;99.90
44695;DHT22;32845;59.422;17.930;2023-08-08T15:54:02;15.40;99.90
44695;DHT22;32845;59.422;17.930;2023-08-08T15:58:34;15.30;99.90
44695;DHT22;32845;59.422;17.930;2023-08-08T16:03:05;15.20;99.90
44695;DHT22;32845;59.422;17.930;2023-08-08T16:07:36;15.10;99.90
44695;DHT22;32845;59.422;17.930;2023-08-08T16:12:06;15.00;99.90
44695;DHT22;32845;59.422;17.930;2023-08-08T16:16:37;14.90;99.90
44695;DHT22;32845;59.422;17.930;2023-08-08T16:21:08;14.90;99.90
44695;DHT22;32845;59.422;17.930;2023-08-08T16:25:38;14.70;99.90
44695;DHT22;32845;59.422;17.930;2023-08-08T16:30:09;14.60;99.90
44695;DHT22;32845;59.422;17.930;2023-08-08T16:34:45;14.50;99.90
44695;DHT22;32845;59.422;17.930;2023-08-08T16:39:16;14.50;99.90
44695;DHT22;32845;59.422;17.930;2023-08-08T16:44:01;14.30;99.90
44695;DHT22;32845;59.422;17.930;2023-08-08T16:48:32;14.30;99.90
44695;DHT22;32845;59.422;17.930;2023-08-08T16:53:02;14.20;99.90
44695;DHT22;32845;59.422;17.930;2023-08-08T16:57:33;14.20;99.90
44695;DHT22;32845;59.422;17.930;2023-08-08T17:02:04;14.10;99.90
44695;DHT22;32845;59.422;17.930;2023-08-08T17:06:34;14.00;99.90
44695;DHT22;32845;59.422;17.930;2023-08-08T17:11:05;14.00;99.90
44695;DHT22;32845;59.422;17.930;2023-08-08T17:15:36;13.90;99.90
44695;DHT22;32845;59.422;17.930;2023-08-08T17:20:07;13.90;99.90
44695;DHT22;32845;59.422;17.930;2023-08-08T17:24:43;13.90;99.90
44695;DHT22;32845;59.422;17.930;2023-08-08T17:29:13;13.80;99.90
44695;DHT22;32845;59.422;17.930;2023-08-08T17:33:44;13.80;99.90
44695;DHT22;32845;59.422;17.930;2023-08-08T17:38:15;13.70;99.90
44695;DHT22;32845;59.422;17.930;2023-08-08T17:42:45;13.60;99.90
44695;DHT22;32845;59.422;17.930;2023-08-08T17:47:16;13.50;99.90
44695;DHT22;32845;59.422;17.930;2023-08-08T17:51:47;13.50;99.90
44695;DHT22;32845;59.422;17.930;2023-08-08T17:56:18;13.40;99.90
44695;DHT22;32845;59.422;17.930;2023-08-08T18:00:49;13.40;99.90
44695;DHT22;32845;59.422;17.930;2023-08-08T18:05:19;13.40;99.90
44695;DHT22;32845;59.422;17.930;2023-08-08T18:09:51;13.30;99.90
44695;DHT22;32845;59.422;17.930;2023-08-08T18:14:27;13.30;99.90
44695;DHT22;32845;59.422;17.930;2023-08-08T18:19:00;13.30;99.90
44695;DHT22;32845;59.422;17.930;2023-08-08T18:23:30;13.30;99.90
44695;DHT22;32845;59.422;17.930;2023-08-08T18:28:02;13.30;99.90
44695;DHT22;32845;59.422;17.930;2023-08-08T18:32:33;13.40;99.90
44695;DHT22;32845;59.422;17.930;2023-08-08T18:37:04;13.40;99.90
44695;DHT22;32845;59.422;17.930;2023-08-08T18:41:35;13.40;99.90
44695;DHT22;32845;59.422;17.930;2023-08-08T18:46:06;13.50;99.90
44695;DHT22;32845;59.422;17.930;2023-08-08T18:50:36;13.50;99.90
44695;DHT22;32845;59.422;17.930;2023-08-08T18:55:07;13.60;99.90
44695;DHT22;32845;59.422;17.930;2023-08-08T18:59:39;13.60;99.90
44695;DHT22;32845;59.422;17.930;2023-08-08T19:04:15;13.60;99.90
44695;DHT22;32845;59.422;17.930;2023-08-08T19:08:46;13.70;99.90
44695;DHT22;32845;59.422;17.930;2023-08-08T19:13:16;13.60;99.90
44695;DHT22;32845;59.422;17.930;2023-08-08T19:17:47;13.70;99.90
44695;DHT22;32845;59.422;17.930;2023-08-08T19:22:23;13.70;99.90
44695;DHT22;32845;59.422;17.930;2023-08-08T19:26:53;13.70;99.90
44695;DHT22;32845;59.422;17.930;2023-08-08T19:31:24;13.80;99.90
44695;DHT22;32845;59.422;17.930;2023-08-08T19:35:55;13.80;99.90
44695;DHT22;32845;59.422;17.930;2023-08-08T19:40:26;13.80;99.90
44695;DHT22;32845;59.422;17.930;2023-08-08T19:44:57;13.90;99.90
44695;DHT22;32845;59.422;17.930;2023-08-08T19:49:28;13.90;99.90
44695;DHT22;32845;59.422;17.930;2023-08-08T19:53:58;13.90;99.90
44695;DHT22;32845;59.422;17.930;2023-08-08T19:58:29;14.00;99.90
44695;DHT22;32845;59.422;17.930;2023-08-08T20:03:00;14.00;99.90
44695;DHT22;32845;59.422;17.930;2023-08-08T20:07:30;14.10;99.90
44695;DHT22;32845;59.422;17.930;2023-08-08T20:12:06;14.10;99.90
44695;DHT22;32845;59.422;17.930;2023-08-08T20:16:37;14.20;99.90
44695;DHT22;32845;59.422;17.930;2023-08-08T20:21:12;14.20;99.90
44695;DHT22;32845;59.422;17.930;2023-08-08T20:25:43;14.20;99.90
44695;DHT22;32845;59.422;17.930;2023-08-08T20:30:14;14.30;99.90
44695;DHT22;32845;59.422;17.930;2023-08-08T20:34:55;14.30;99.90
44695;DHT22;32845;59.422;17.930;2023-08-08T20:39:26;14.20;99.90
44695;DHT22;32845;59.422;17.930;2023-08-08T20:43:56;14.20;99.90
44695;DHT22;32845;59.422;17.930;2023-08-08T20:48:27;14.20;99.90
44695;DHT22;32845;59.422;17.930;2023-08-08T20:53:02;14.10;99.90
44695;DHT22;32845;59.422;17.930;2023-08-08T20:57:34;14.10;99.90
44695;DHT22;32845;59.422;17.930;2023-08-08T21:02:05;14.10;99.90
44695;DHT22;32845;59.422;17.930;2023-08-08T21:06:36;14.10;99.90
44695;DHT22;32845;59.422;17.930;2023-08-08T21:11:06;14.00;99.90
44695;DHT22;32845;59.422;17.930;2023-08-08T21:15:37;14.00;99.90
44695;DHT22;32845;59.422;17.930;2023-08-08T21:20:11;13.90;99.90
44695;DHT22;32845;59.422;17.930;2023-08-08T21:24:42;13.90;99.90
44695;DHT22;32845;59.422;17.930;2023-08-08T21:29:13;13.80;99.90
44695;DHT22;32845;59.422;17.930;2023-08-08T21:33:49;13.80;99.90
44695;DHT22;32845;59.422;17.930;2023-08-08T21:38:20;13.70;99.90
44695;DHT22;32845;59.422;17.930;2023-08-08T21:42:51;13.70;99.90
44695;DHT22;32845;59.422;17.930;2023-08-08T21:47:22;13.60;99.90
44695;DHT22;32845;59.422;17.930;2023-08-08T21:51:53;13.70;99.90
44695;DHT22;32845;59.422;17.930;2023-08-08T21:56:24;13.60;99.90
44695;DHT22;32845;59.422;17.930;2023-08-08T22:00:54;13.60;99.90
44695;DHT22;32845;59.422;17.930;2023-08-08T22:05:25;13.60;99.90
44695;DHT22;32845;59.422;17.930;2023-08-08T22:09:56;13.50;99.90
44695;DHT22;32845;59.422;17.930;2023-08-08T22:14:26;13.50;99.90
44695;DHT22;32845;59.422;17.930;2023-08-08T22:18:57;13.50;99.90
44695;DHT22;32845;59.422;17.930;2023-08-08T22:23:33;13.40;99.90
44695;DHT22;32845;59.422;17.930;2023-08-08T22:28:04;13.40;99.90
44695;DHT22;32845;59.422;17.930;2023-08-08T22:32:35;13.40;99.90
44695;DHT22;32845;59.422;17.930;2023-08-08T22:37:05;13.40;99.90
44695;DHT22;32845;59.422;17.930;2023-08-08T22:41:41;13.40;99.90
44695;DHT22;32845;59.422;17.930;2023-08-08T22:46:12;13.40;99.90
44695;DHT22;32845;59.422;17.930;2023-08-08T22:50:42;13.40;99.90
44695;DHT22;32845;59.422;17.930;2023-08-08T22:55:14;13.40;99.90
44695;DHT22;32845;59.422;17.930;2023-08-08T22:59:45;13.40;99.90
44695;DHT22;32845;59.422;17.930;2023-08-08T23:04:21;13.40;99.90
44695;DHT22;32845;59.422;17.930;2023-08-08T23:08:51;13.30;99.90
44695;DHT22;32845;59.422;17.930;2023-08-08T23:13:22;13.30;99.90
44695;DHT22;32845;59.422;17.930;2023-08-08T23:17:53;13.20;99.90
44695;DHT22;32845;59.422;17.930;2023-08-08T23:22:23;13.20;99.90
44695;DHT22;32845;59.422;17.930;2023-08-08T23:26:54;13.20;99.90
44695;DHT22;32845;59.422;17.930;2023-08-08T23:31:26;13.20;99.90
44695;DHT22;32845;59.422;17.930;2023-08-08T23:35:56;13.20;99.90
44695;DHT22;32845;59.422;17.930;2023-08-08T23:40:27;13.10;99.90
44695;DHT22;32845;59.422;17.930;2023-08-08T23:44:57;13.10;99.90
44695;DHT22;32845;59.422;17.930;2023-08-08T23:49:28;13.20;99.90
44695;DHT22;32845;59.422;17.930;2023-08-08T23:54:00;13.20;99.90
44695;DHT22;32845;59.422;17.930;2023-08-08T23:58:30;13.20;99.90
